Time;durP1;ratioP1;P1;durP2;ratioP2;P2;SDS_P1;SDS_P2;PMS_P1;PMS_P2;Temp;Humidity;BMP_temperature;BMP_pressure;BME280_temperature;BME280_humidity;BME280_pressure;Samples;Min_cycle;Max_cycle;Signal;HPM_P1;HPM_P2
2022/03/29 00:00:38;;;;;;;;;;;11.20;51.20;;;;;;6277987;22;19911;-89
2022/03/29 00:03:07;;;;;;;;;;;11.30;51.20;;;;;;6278775;22;19990;-88
2022/03/29 00:05:33;;;;;;;;;;;11.30;51.20;;;;;;6278694;22;19982;-88
2022/03/29 00:08:00;;;;;;;;;;;11.40;51.40;;;;;;6278387;22;19907;-88
2022/03/29 00:10:26;;;;;;;;;;;11.50;51.30;;;;;;6281130;22;19907;-88
2022/03/29 00:12:53;;;;;;;;;;;11.40;51.20;;;;;;6278660;22;19911;-89
2022/03/29 00:15:22;;;;;;;;;;;11.50;51.10;;;;;;6279405;22;19907;-89
2022/03/29 00:17:48;;;;;;;;;;;11.50;51.10;;;;;;6278556;22;20247;-90
2022/03/29 00:20:14;;;;;;;;;;;11.50;51.10;;;;;;6278430;22;19909;-89
2022/03/29 00:22:39;;;;;;;;;;;11.60;51.20;;;;;;6279926;22;19919;-89
2022/03/29 00:25:05;;;;;;;;;;;11.70;51.20;;;;;;6280538;22;19903;-89
2022/03/29 00:27:31;;;;;;;;;;;11.80;51.10;;;;;;6281673;22;19915;-90
2022/03/29 00:29:59;;;;;;;;;;;11.80;51.00;;;;;;6279015;22;19903;-88
2022/03/29 00:32:25;;;;;;;;;;;11.90;51.00;;;;;;6279555;22;19950;-88
2022/03/29 00:34:50;;;;;;;;;;;12.00;50.90;;;;;;6279522;22;20320;-88
2022/03/29 00:37:16;;;;;;;;;;;12.10;51.00;;;;;;6279478;22;20247;-89
2022/03/29 00:39:41;;;;;;;;;;;12.20;50.90;;;;;;6280594;22;20283;-87
2022/03/29 00:42:07;;;;;;;;;;;12.30;51.00;;;;;;6277438;22;19950;-88
2022/03/29 00:44:33;;;;;;;;;;;12.30;51.20;;;;;;6281314;22;20243;-88
2022/03/29 00:47:00;;;;;;;;;;;12.40;50.90;;;;;;6278310;22;19907;-90
2022/03/29 00:49:25;;;;;;;;;;;12.50;50.90;;;;;;6279165;22;19961;-89
2022/03/29 00:52:00;;;;;;;;;;;12.50;50.90;;;;;;6280486;22;19907;-88
2022/03/29 00:54:26;;;;;;;;;;;12.60;50.80;;;;;;6278132;22;19908;-87
2022/03/29 00:56:52;;;;;;;;;;;12.70;50.80;;;;;;6279129;22;19915;-89
2022/03/29 00:59:17;;;;;;;;;;;12.70;50.90;;;;;;6278837;22;19918;-88
2022/03/29 01:01:43;;;;;;;;;;;12.80;51.10;;;;;;6278576;22;19925;-89
2022/03/29 01:04:09;;;;;;;;;;;12.80;51.00;;;;;;6278387;22;19908;-90
2022/03/29 01:06:37;;;;;;;;;;;12.80;51.10;;;;;;6278517;22;20371;-89
2022/03/29 01:09:05;;;;;;;;;;;12.90;51.10;;;;;;6280026;22;19903;-88
2022/03/29 01:11:32;;;;;;;;;;;12.90;51.10;;;;;;6278291;22;20300;-88
2022/03/29 01:13:59;;;;;;;;;;;12.90;51.30;;;;;;6279633;22;20176;-89
2022/03/29 01:19:11;;;;;;;;;;;12.90;51.70;;;;;;6279503;22;19953;-89
2022/03/29 01:21:38;;;;;;;;;;;12.90;51.80;;;;;;6277731;22;19912;-89
2022/03/29 01:24:04;;;;;;;;;;;13.00;51.80;;;;;;6278959;22;19914;-88
2022/03/29 01:26:30;;;;;;;;;;;12.90;51.90;;;;;;6279231;22;19920;-89
2022/03/29 01:28:55;;;;;;;;;;;12.90;51.80;;;;;;6279928;22;19915;-88
2022/03/29 01:31:22;;;;;;;;;;;13.00;52.10;;;;;;6278616;22;19911;-88
2022/03/29 01:33:48;;;;;;;;;;;13.00;52.10;;;;;;6277475;22;20244;-88
2022/03/29 01:36:13;;;;;;;;;;;13.00;52.20;;;;;;6278865;22;19927;-89
2022/03/29 01:38:40;;;;;;;;;;;13.00;52.20;;;;;;6277714;22;19989;-88
2022/03/29 01:41:05;;;;;;;;;;;13.10;52.10;;;;;;6277252;22;20248;-89
2022/03/29 01:43:31;;;;;;;;;;;13.10;52.00;;;;;;6279242;22;19982;-88
2022/03/29 01:45:57;;;;;;;;;;;13.10;52.00;;;;;;6279351;22;19911;-88
2022/03/29 01:48:23;;;;;;;;;;;13.20;51.90;;;;;;6277619;22;19915;-87
2022/03/29 01:50:49;;;;;;;;;;;13.20;51.90;;;;;;6278863;22;19912;-88
2022/03/29 01:53:24;;;;;;;;;;;13.30;51.80;;;;;;6278811;22;19933;-89
2022/03/29 01:55:56;;;;;;;;;;;13.20;51.60;;;;;;6276518;22;19915;-88
2022/03/29 01:58:26;;;;;;;;;;;13.20;51.70;;;;;;6277810;22;19956;-89
2022/03/29 02:00:51;;;;;;;;;;;13.20;51.70;;;;;;6276521;22;20325;-88
2022/03/29 02:03:17;;;;;;;;;;;13.20;51.70;;;;;;6276672;22;19915;-88
2022/03/29 02:05:42;;;;;;;;;;;13.20;51.70;;;;;;6277493;22;19947;-89
2022/03/29 02:08:07;;;;;;;;;;;13.20;51.70;;;;;;6279133;22;19998;-88
2022/03/29 02:10:33;;;;;;;;;;;13.30;51.70;;;;;;6278129;22;19908;-88
2022/03/29 02:12:59;;;;;;;;;;;13.30;51.70;;;;;;6278608;22;19907;-88
2022/03/29 02:15:24;;;;;;;;;;;13.30;51.60;;;;;;6276655;22;20274;-89
2022/03/29 02:17:50;;;;;;;;;;;13.30;51.60;;;;;;6276868;22;20362;-89
2022/03/29 02:20:16;;;;;;;;;;;13.30;51.60;;;;;;6277293;22;19934;-88
2022/03/29 02:22:42;;;;;;;;;;;13.30;51.50;;;;;;6277070;22;19918;-88
2022/03/29 02:25:10;;;;;;;;;;;13.30;51.40;;;;;;6279894;22;19907;-89
2022/03/29 02:27:36;;;;;;;;;;;13.30;51.40;;;;;;6277339;22;19915;-88
2022/03/29 02:30:02;;;;;;;;;;;13.30;51.30;;;;;;6277509;22;19915;-89
2022/03/29 02:32:28;;;;;;;;;;;13.30;51.30;;;;;;6279160;22;20213;-89
2022/03/29 02:34:53;;;;;;;;;;;13.30;51.30;;;;;;6276889;22;19915;-88
2022/03/29 02:37:20;;;;;;;;;;;13.30;51.20;;;;;;6278548;22;20283;-88
2022/03/29 02:39:45;;;;;;;;;;;13.30;51.20;;;;;;6277021;22;19908;-88
2022/03/29 02:42:10;;;;;;;;;;;13.30;51.20;;;;;;6279315;22;19976;-88
2022/03/29 02:44:36;;;;;;;;;;;13.30;51.20;;;;;;6277863;22;19915;-88
2022/03/29 02:47:01;;;;;;;;;;;13.30;51.20;;;;;;6277114;22;19911;-88
2022/03/29 02:49:27;;;;;;;;;;;13.30;51.10;;;;;;6278439;22;19942;-88
2022/03/29 02:51:53;;;;;;;;;;;13.30;51.10;;;;;;6278317;22;20370;-88
2022/03/29 02:54:19;;;;;;;;;;;13.30;51.10;;;;;;6276324;22;19907;-88
2022/03/29 02:56:45;;;;;;;;;;;13.30;51.10;;;;;;6278945;22;19965;-89
2022/03/29 02:59:10;;;;;;;;;;;13.30;51.00;;;;;;6277696;22;20375;-90
2022/03/29 03:01:36;;;;;;;;;;;13.30;51.00;;;;;;6277328;22;19962;-89
2022/03/29 03:04:02;;;;;;;;;;;13.30;51.10;;;;;;6278268;22;20365;-88
2022/03/29 03:06:28;;;;;;;;;;;13.30;51.10;;;;;;6278751;22;19918;-88
2022/03/29 03:08:54;;;;;;;;;;;13.20;51.10;;;;;;6276565;22;19919;-88
2022/03/29 03:11:20;;;;;;;;;;;13.20;51.10;;;;;;6276710;22;19911;-89
2022/03/29 03:13:46;;;;;;;;;;;13.20;51.10;;;;;;6279065;22;19926;-89
2022/03/29 03:16:12;;;;;;;;;;;13.20;51.10;;;;;;6276530;22;19911;-91
2022/03/29 03:18:38;;;;;;;;;;;13.20;51.10;;;;;;6278552;22;19916;-88
2022/03/29 03:21:03;;;;;;;;;;;13.20;51.10;;;;;;6275883;22;20326;-88
2022/03/29 03:23:29;;;;;;;;;;;13.20;51.10;;;;;;6276332;22;19915;-88
2022/03/29 03:25:54;;;;;;;;;;;13.20;51.00;;;;;;6278475;22;20329;-88
2022/03/29 03:28:20;;;;;;;;;;;13.30;51.00;;;;;;6278023;22;19915;-88
2022/03/29 03:30:45;;;;;;;;;;;13.30;50.90;;;;;;6278314;22;20239;-88
2022/03/29 03:33:11;;;;;;;;;;;13.30;50.80;;;;;;6277026;22;19994;-88
2022/03/29 03:35:36;;;;;;;;;;;13.30;50.80;;;;;;6276663;22;19931;-88
2022/03/29 03:38:02;;;;;;;;;;;13.30;50.80;;;;;;6277040;22;19911;-89
2022/03/29 03:40:27;;;;;;;;;;;13.30;50.80;;;;;;6276798;22;19907;-88
2022/03/29 03:42:53;;;;;;;;;;;13.30;50.80;;;;;;6277118;22;19918;-89
2022/03/29 03:45:18;;;;;;;;;;;13.30;50.80;;;;;;6276617;22;19907;-90
2022/03/29 03:47:46;;;;;;;;;;;13.30;50.80;;;;;;6278051;22;19907;-88
2022/03/29 03:50:11;;;;;;;;;;;13.30;50.80;;;;;;6275959;22;19915;-88
2022/03/29 03:52:37;;;;;;;;;;;13.30;50.80;;;;;;6277612;22;19903;-88
2022/03/29 03:55:03;;;;;;;;;;;13.30;50.80;;;;;;6276036;22;19911;-88
2022/03/29 03:57:28;;;;;;;;;;;13.30;50.80;;;;;;6275862;22;19908;-87
2022/03/29 03:59:56;;;;;;;;;;;13.30;50.80;;;;;;6277668;22;19907;-88
2022/03/29 04:02:21;;;;;;;;;;;13.30;50.80;;;;;;6277851;22;19945;-88
2022/03/29 04:04:47;;;;;;;;;;;13.40;50.70;;;;;;6276215;22;19911;-88
2022/03/29 04:07:13;;;;;;;;;;;13.30;50.70;;;;;;6279568;22;19914;-89
2022/03/29 04:09:39;;;;;;;;;;;13.30;50.70;;;;;;6276106;22;19911;-89
2022/03/29 04:12:05;;;;;;;;;;;13.40;50.70;;;;;;6275436;22;19984;-87
2022/03/29 04:14:31;;;;;;;;;;;13.30;50.70;;;;;;6274992;22;20057;-89
2022/03/29 04:16:56;;;;;;;;;;;13.30;50.70;;;;;;6276890;22;19919;-87
2022/03/29 04:19:22;;;;;;;;;;;13.30;50.70;;;;;;6276249;22;19965;-88
2022/03/29 04:21:47;;;;;;;;;;;13.30;50.70;;;;;;6277098;22;19946;-88
2022/03/29 04:24:13;;;;;;;;;;;13.40;50.70;;;;;;6275483;22;19912;-88
2022/03/29 04:26:38;;;;;;;;;;;13.40;50.60;;;;;;6276020;22;19933;-88
2022/03/29 04:29:04;;;;;;;;;;;13.30;50.60;;;;;;6276214;22;20021;-88
2022/03/29 04:31:30;;;;;;;;;;;13.30;50.60;;;;;;6277416;22;20244;-88
2022/03/29 04:33:55;;;;;;;;;;;13.30;50.60;;;;;;6276134;22;19907;-87
2022/03/29 04:36:21;;;;;;;;;;;13.30;50.60;;;;;;6275864;22;19926;-88
2022/03/29 04:38:46;;;;;;;;;;;13.30;50.60;;;;;;6276046;22;19907;-88
2022/03/29 04:41:12;;;;;;;;;;;13.30;50.50;;;;;;6276308;22;19938;-89
2022/03/29 04:43:38;;;;;;;;;;;13.30;50.50;;;;;;6276502;22;19908;-88
2022/03/29 04:46:03;;;;;;;;;;;13.30;50.50;;;;;;6275750;22;19969;-89
2022/03/29 04:48:29;;;;;;;;;;;13.30;50.50;;;;;;6277489;22;19907;-89
2022/03/29 04:50:54;;;;;;;;;;;13.20;50.60;;;;;;6275476;22;19914;-88
2022/03/29 04:53:20;;;;;;;;;;;13.20;50.70;;;;;;6276343;22;19957;-87
2022/03/29 04:55:45;;;;;;;;;;;13.20;50.70;;;;;;6278471;22;19918;-88
2022/03/29 04:58:11;;;;;;;;;;;13.20;50.90;;;;;;6277312;22;19918;-89
2022/03/29 05:00:37;;;;;;;;;;;13.10;50.90;;;;;;6277084;22;19982;-89
2022/03/29 05:03:03;;;;;;;;;;;13.10;50.90;;;;;;6279256;22;19942;-88
2022/03/29 05:05:28;;;;;;;;;;;13.10;50.90;;;;;;6277648;22;19925;-88
2022/03/29 05:07:54;;;;;;;;;;;13.10;50.80;;;;;;6279890;22;19919;-88
2022/03/29 05:10:19;;;;;;;;;;;13.10;50.80;;;;;;6279129;22;19910;-87
2022/03/29 05:12:46;;;;;;;;;;;13.10;50.80;;;;;;6279216;22;19910;-89
2022/03/29 05:15:12;;;;;;;;;;;13.10;50.70;;;;;;6279861;22;20290;-88
2022/03/29 05:17:38;;;;;;;;;;;13.00;50.60;;;;;;6277373;22;19907;-89
2022/03/29 05:20:05;;;;;;;;;;;13.00;50.50;;;;;;6277825;22;19908;-88
2022/03/29 05:22:31;;;;;;;;;;;13.00;50.50;;;;;;6277056;22;19911;-88
2022/03/29 05:24:56;;;;;;;;;;;13.10;50.50;;;;;;6276300;22;19911;-88
2022/03/29 05:27:22;;;;;;;;;;;13.10;50.40;;;;;;6277251;22;19908;-89
2022/03/29 05:29:47;;;;;;;;;;;13.10;50.40;;;;;;6277122;22;19934;-86
2022/03/29 05:32:18;;;;;;;;;;;13.10;50.30;;;;;;6277965;22;20228;-91
2022/03/29 05:34:47;;;;;;;;;;;13.20;50.20;;;;;;6278588;22;20333;-87
2022/03/29 05:37:13;;;;;;;;;;;13.20;50.10;;;;;;6251804;22;19911;-87
2022/03/29 05:39:43;;;;;;;;;;;13.20;50.10;;;;;;6279103;22;19914;-88
2022/03/29 05:42:10;;;;;;;;;;;13.20;50.10;;;;;;6278505;22;20267;-89
2022/03/29 05:44:37;;;;;;;;;;;13.20;50.10;;;;;;6277059;22;19907;-88
2022/03/29 05:49:46;;;;;;;;;;;13.10;50.00;;;;;;6278810;22;19919;-88
2022/03/29 05:52:12;;;;;;;;;;;13.10;50.10;;;;;;6277498;22;19907;-88
2022/03/29 05:54:39;;;;;;;;;;;13.20;50.00;;;;;;6277665;22;19913;-88
2022/03/29 05:57:05;;;;;;;;;;;13.20;49.90;;;;;;6278803;22;19981;-88
2022/03/29 05:59:31;;;;;;;;;;;13.20;49.90;;;;;;6277389;22;19912;-88
2022/03/29 06:02:00;;;;;;;;;;;13.20;49.90;;;;;;6277256;22;19911;-88
2022/03/29 06:04:25;;;;;;;;;;;13.20;49.90;;;;;;6278450;22;19986;-88
2022/03/29 06:06:51;;;;;;;;;;;13.20;49.80;;;;;;6277505;22;19911;-88
2022/03/29 06:09:19;;;;;;;;;;;13.20;49.70;;;;;;6277906;22;19998;-88
2022/03/29 06:11:45;;;;;;;;;;;13.20;49.80;;;;;;6279261;22;19915;-89
2022/03/29 06:14:11;;;;;;;;;;;13.20;49.70;;;;;;6280395;22;19937;-88
2022/03/29 06:16:36;;;;;;;;;;;13.20;49.70;;;;;;6277491;22;19935;-89
2022/03/29 06:19:02;;;;;;;;;;;13.20;49.60;;;;;;6279776;22;19915;-89
2022/03/29 06:21:27;;;;;;;;;;;13.20;49.50;;;;;;6278020;22;19907;-88
2022/03/29 06:23:53;;;;;;;;;;;13.20;49.50;;;;;;6279986;22;19957;-88
2022/03/29 06:26:19;;;;;;;;;;;13.20;49.60;;;;;;6277781;22;19908;-88
2022/03/29 06:28:44;;;;;;;;;;;13.20;49.60;;;;;;6277441;22;19903;-88
2022/03/29 06:31:10;;;;;;;;;;;13.30;49.60;;;;;;6278587;22;19911;-88
2022/03/29 06:33:35;;;;;;;;;;;13.30;49.50;;;;;;6278111;22;19914;-89
2022/03/29 06:36:01;;;;;;;;;;;13.30;49.50;;;;;;6277032;22;19924;-88
2022/03/29 06:38:27;;;;;;;;;;;13.40;49.50;;;;;;6277728;22;20289;-89
2022/03/29 06:40:54;;;;;;;;;;;13.50;49.40;;;;;;6279710;22;19933;-88
2022/03/29 06:43:21;;;;;;;;;;;13.50;49.20;;;;;;6279228;22;19927;-89
2022/03/29 06:45:46;;;;;;;;;;;13.50;49.10;;;;;;6278730;22;20312;-88
2022/03/29 06:48:12;;;;;;;;;;;13.60;49.10;;;;;;6278945;22;19908;-89
2022/03/29 06:50:37;;;;;;;;;;;13.60;49.00;;;;;;6280105;22;19942;-89
2022/03/29 06:53:04;;;;;;;;;;;13.70;49.00;;;;;;6279279;22;19904;-89
2022/03/29 06:55:29;;;;;;;;;;;13.80;48.80;;;;;;6279145;22;20582;-89
2022/03/29 06:57:55;;;;;;;;;;;13.80;48.60;;;;;;6278043;22;19904;-89
2022/03/29 07:00:21;;;;;;;;;;;13.80;48.50;;;;;;6278603;22;19942;-89
2022/03/29 07:02:48;;;;;;;;;;;13.80;48.50;;;;;;6280341;22;19910;-90
2022/03/29 07:05:14;;;;;;;;;;;13.80;48.60;;;;;;6278895;22;20313;-89
2022/03/29 07:07:40;;;;;;;;;;;13.90;48.40;;;;;;6280023;22;19904;-89
2022/03/29 07:12:54;;;;;;;;;;;14.00;48.30;;;;;;6279322;22;19918;-90
2022/03/29 07:15:20;;;;;;;;;;;14.20;48.60;;;;;;6280475;22;19929;-90
2022/03/29 07:17:46;;;;;;;;;;;14.30;48.40;;;;;;6276195;22;19911;-90
2022/03/29 07:20:13;;;;;;;;;;;14.40;48.10;;;;;;6278643;22;19911;-89
2022/03/29 07:22:38;;;;;;;;;;;14.50;48.00;;;;;;6278646;22;19954;-89
2022/03/29 07:25:04;;;;;;;;;;;14.60;47.80;;;;;;6278529;22;19911;-90
2022/03/29 07:27:30;;;;;;;;;;;14.70;47.40;;;;;;6278493;22;19915;-90
2022/03/29 07:29:57;;;;;;;;;;;14.80;47.00;;;;;;6280160;22;20232;-90
2022/03/29 07:32:23;;;;;;;;;;;14.80;46.60;;;;;;6278593;22;20270;-91
2022/03/29 07:34:48;;;;;;;;;;;14.90;46.50;;;;;;6280046;22;19915;-90
2022/03/29 07:37:13;;;;;;;;;;;14.90;46.30;;;;;;6278277;22;19911;-90
2022/03/29 07:39:40;;;;;;;;;;;14.90;46.20;;;;;;6280910;22;19961;-89
2022/03/29 07:42:06;;;;;;;;;;;15.00;46.10;;;;;;6279587;22;19938;-90
2022/03/29 07:44:32;;;;;;;;;;;15.10;46.20;;;;;;6277451;22;20236;-89
2022/03/29 07:46:57;;;;;;;;;;;15.10;46.10;;;;;;6277765;22;19954;-90
2022/03/29 07:49:23;;;;;;;;;;;15.20;45.70;;;;;;6278548;22;19919;-90
2022/03/29 07:51:50;;;;;;;;;;;15.10;45.20;;;;;;6277623;22;19907;-89
2022/03/29 07:54:16;;;;;;;;;;;15.20;45.20;;;;;;6280089;22;19926;-90
2022/03/29 07:56:49;;;;;;;;;;;15.20;45.20;;;;;;6277275;22;20323;-89
2022/03/29 07:59:15;;;;;;;;;;;15.30;45.20;;;;;;6279233;22;19926;-89
2022/03/29 08:01:40;;;;;;;;;;;15.30;44.90;;;;;;6280184;22;19911;-90
2022/03/29 08:04:06;;;;;;;;;;;15.30;45.00;;;;;;6279540;22;19983;-90
2022/03/29 08:06:31;;;;;;;;;;;15.40;45.10;;;;;;6278036;22;19914;-92
2022/03/29 08:08:57;;;;;;;;;;;15.40;44.80;;;;;;6277850;22;19994;-90
2022/03/29 08:11:24;;;;;;;;;;;15.50;44.40;;;;;;6278957;22;19972;-90
2022/03/29 08:13:50;;;;;;;;;;;15.60;44.50;;;;;;6278566;22;19911;-88
2022/03/29 08:16:16;;;;;;;;;;;15.70;44.40;;;;;;6279475;22;19911;-91
2022/03/29 08:18:42;;;;;;;;;;;15.70;43.90;;;;;;6279433;22;20350;-91
2022/03/29 08:23:52;;;;;;;;;;;15.90;44.10;;;;;;6278915;22;19961;-90
2022/03/29 08:26:18;;;;;;;;;;;16.00;44.10;;;;;;6278874;22;19907;-90
2022/03/29 08:28:43;;;;;;;;;;;16.10;43.70;;;;;;6279882;22;19911;-88
2022/03/29 08:31:09;;;;;;;;;;;16.10;43.40;;;;;;6278461;22;19945;-90
2022/03/29 08:33:34;;;;;;;;;;;16.10;43.10;;;;;;6279737;22;20327;-90
2022/03/29 08:36:00;;;;;;;;;;;16.10;42.50;;;;;;6280627;22;19919;-90
2022/03/29 08:38:27;;;;;;;;;;;16.00;42.20;;;;;;6279175;22;19911;-90
2022/03/29 08:40:57;;;;;;;;;;;16.10;42.50;;;;;;6280804;22;20388;-90
2022/03/29 08:43:27;;;;;;;;;;;16.10;42.40;;;;;;6280829;22;20221;-90
2022/03/29 08:45:53;;;;;;;;;;;16.10;42.40;;;;;;6280064;22;19922;-90
2022/03/29 08:48:23;;;;;;;;;;;16.20;42.30;;;;;;6281048;22;20315;-90
2022/03/29 08:50:50;;;;;;;;;;;16.30;42.30;;;;;;6279112;22;19912;-90
2022/03/29 08:53:22;;;;;;;;;;;16.40;42.30;;;;;;6279180;22;19914;-91
2022/03/29 08:55:48;;;;;;;;;;;16.60;42.30;;;;;;6279438;22;19916;-90
2022/03/29 08:58:14;;;;;;;;;;;16.60;41.00;;;;;;6281256;22;19911;-90
2022/03/29 09:00:44;;;;;;;;;;;16.60;41.00;;;;;;6280122;22;20347;-90
2022/03/29 09:03:17;;;;;;;;;;;16.60;40.90;;;;;;6279169;22;20319;-90
2022/03/29 09:05:42;;;;;;;;;;;16.60;40.80;;;;;;6280598;22;20338;-90
2022/03/29 09:08:09;;;;;;;;;;;16.60;40.80;;;;;;6280177;22;19942;-91
2022/03/29 09:10:38;;;;;;;;;;;16.70;41.00;;;;;;6279974;22;19907;-91
2022/03/29 09:13:23;;;;;;;;;;;16.90;41.00;;;;;;6278043;22;19986;-89
2022/03/29 09:15:50;;;;;;;;;;;17.00;40.90;;;;;;6279509;22;19923;-90
2022/03/29 09:18:16;;;;;;;;;;;17.10;40.20;;;;;;6279570;22;19915;-90
2022/03/29 09:20:42;;;;;;;;;;;17.20;40.20;;;;;;6281097;22;19907;-90
2022/03/29 09:23:17;;;;;;;;;;;17.30;40.30;;;;;;6281393;22;19907;-89
2022/03/29 09:25:47;;;;;;;;;;;17.50;40.30;;;;;;6280150;22;19907;-90
2022/03/29 09:28:15;;;;;;;;;;;17.80;40.30;;;;;;6279679;22;19960;-89
2022/03/29 09:30:51;;;;;;;;;;;18.00;40.30;;;;;;6280041;22;19994;-90
2022/03/29 09:33:29;;;;;;;;;;;18.30;39.70;;;;;;6279500;22;19911;-90
2022/03/29 09:35:57;;;;;;;;;;;18.30;38.70;;;;;;6280416;22;19994;-92
2022/03/29 09:38:27;;;;;;;;;;;18.30;38.40;;;;;;6279995;22;19915;-91
2022/03/29 09:40:53;;;;;;;;;;;18.30;38.30;;;;;;6281318;22;19911;-91
2022/03/29 09:43:20;;;;;;;;;;;18.40;37.70;;;;;;6282563;22;20217;-91
2022/03/29 09:45:50;;;;;;;;;;;18.60;37.70;;;;;;6280687;22;19914;-92
2022/03/29 09:48:25;;;;;;;;;;;18.80;37.90;;;;;;6282112;22;19998;-91
2022/03/29 09:50:55;;;;;;;;;;;19.20;37.90;;;;;;6282243;22;20391;-91
2022/03/29 09:53:33;;;;;;;;;;;19.80;37.80;;;;;;6279827;22;19926;-90
2022/03/29 09:56:01;;;;;;;;;;;20.40;37.70;;;;;;6279422;22;19973;-93
2022/03/29 09:58:28;;;;;;;;;;;21.00;36.70;;;;;;6280776;22;19914;-90
2022/03/29 10:00:55;;;;;;;;;;;21.40;36.00;;;;;;6281713;22;19961;-91
2022/03/29 10:03:23;;;;;;;;;;;21.80;34.70;;;;;;6280569;22;19915;-91
2022/03/29 10:05:49;;;;;;;;;;;22.00;33.20;;;;;;6280241;22;19912;-91
2022/03/29 10:11:01;;;;;;;;;;;22.30;32.80;;;;;;6281706;22;19917;-91
2022/03/29 10:13:29;;;;;;;;;;;22.30;32.90;;;;;;6280368;22;19911;-90
2022/03/29 10:15:55;;;;;;;;;;;22.40;32.40;;;;;;6280530;22;19919;-91
2022/03/29 10:18:24;;;;;;;;;;;22.50;32.70;;;;;;6301098;22;19909;-92
2022/03/29 10:20:51;;;;;;;;;;;22.50;32.40;;;;;;6296796;22;19915;-92
2022/03/29 10:23:23;;;;;;;;;;;22.60;32.60;;;;;;6291707;22;19951;-92
2022/03/29 10:25:51;;;;;;;;;;;22.80;32.60;;;;;;6298572;22;19934;-91
2022/03/29 10:28:16;;;;;;;;;;;23.20;32.50;;;;;;6285790;22;20315;-91
2022/03/29 10:30:43;;;;;;;;;;;23.90;32.60;;;;;;6285386;22;19934;-91
2022/03/29 10:33:18;;;;;;;;;;;24.50;31.30;;;;;;6285926;22;19918;-90
2022/03/29 10:35:59;;;;;;;;;;;24.70;30.30;;;;;;6288353;22;19911;-91
2022/03/29 10:38:45;;;;;;;;;;;24.80;30.50;;;;;;6289529;22;19927;-92
2022/03/29 10:41:26;;;;;;;;;;;25.00;30.30;;;;;;6290432;22;19914;-91
2022/03/29 10:43:54;;;;;;;;;;;25.10;29.90;;;;;;6288969;22;19915;-91
2022/03/29 10:46:25;;;;;;;;;;;25.30;29.50;;;;;;6285456;22;19907;-92
2022/03/29 10:49:09;;;;;;;;;;;25.30;28.80;;;;;;6285791;22;19918;-91
2022/03/29 10:51:35;;;;;;;;;;;25.20;28.40;;;;;;6262383;22;19907;-91
2022/03/29 10:54:24;;;;;;;;;;;25.20;28.40;;;;;;6285533;22;19916;-92
2022/03/29 10:57:00;;;;;;;;;;;25.20;28.90;;;;;;6253562;22;19939;-91
2022/03/29 10:59:30;;;;;;;;;;;25.30;29.00;;;;;;6292075;22;20045;-92
2022/03/29 11:02:15;;;;;;;;;;;25.70;29.00;;;;;;6296601;22;19956;-90
2022/03/29 11:05:00;;;;;;;;;;;26.40;28.80;;;;;;6294420;22;19912;-92
2022/03/29 11:07:26;;;;;;;;;;;27.00;28.40;;;;;;6267903;22;19935;-91
2022/03/29 11:10:06;;;;;;;;;;;27.70;28.00;;;;;;6295276;22;19910;-90
2022/03/29 11:12:36;;;;;;;;;;;28.10;27.20;;;;;;6292751;22;19916;-91
2022/03/29 11:15:22;;;;;;;;;;;28.30;26.60;;;;;;6285747;22;19887;-91
2022/03/29 11:17:49;;;;;;;;;;;28.60;24.80;;;;;;6291536;22;19959;-91
2022/03/29 11:20:29;;;;;;;;;;;28.70;24.60;;;;;;6280690;22;19957;-92
2022/03/29 11:23:05;;;;;;;;;;;29.00;24.80;;;;;;6281570;22;19919;-92
2022/03/29 11:25:43;;;;;;;;;;;29.30;24.30;;;;;;6280944;22;19927;-90
2022/03/29 11:28:11;;;;;;;;;;;29.30;24.10;;;;;;6283047;22;20468;-91
2022/03/29 11:30:37;;;;;;;;;;;29.70;23.80;;;;;;6279913;22;19911;-92
2022/03/29 11:33:03;;;;;;;;;;;29.80;21.50;;;;;;6281290;22;19895;-90
2022/03/29 11:35:30;;;;;;;;;;;29.50;21.70;;;;;;6280037;22;19911;-92
2022/03/29 11:38:05;;;;;;;;;;;29.70;22.50;;;;;;6281559;22;19942;-90
2022/03/29 11:40:33;;;;;;;;;;;30.10;22.80;;;;;;6279221;22;19911;-90
2022/03/29 11:43:05;;;;;;;;;;;30.40;21.90;;;;;;6278673;22;20352;-91
2022/03/29 11:45:57;;;;;;;;;;;30.70;21.80;;;;;;6278262;22;19938;-91
2022/03/29 11:48:24;;;;;;;;;;;30.80;21.70;;;;;;6278510;22;19911;-92
2022/03/29 11:50:52;;;;;;;;;;;30.90;21.70;;;;;;6279576;22;19919;-90
2022/03/29 11:53:23;;;;;;;;;;;31.10;21.40;;;;;;6279017;22;19931;-93
2022/03/29 11:56:27;;;;;;;;;;;31.00;21.10;;;;;;6277248;22;20050;-92
2022/03/29 11:59:05;;;;;;;;;;;31.00;21.10;;;;;;6280939;22;19938;-91
2022/03/29 12:01:34;;;;;;;;;;;30.80;20.90;;;;;;6281292;22;19911;-92
2022/03/29 12:04:07;;;;;;;;;;;30.70;20.50;;;;;;6281152;22;19915;-91
2022/03/29 12:06:45;;;;;;;;;;;30.70;20.40;;;;;;6280347;22;19914;-91
2022/03/29 12:09:46;;;;;;;;;;;30.50;20.30;;;;;;6279771;22;19918;-91
2022/03/29 12:12:13;;;;;;;;;;;30.30;20.50;;;;;;6282828;22;19907;-90
2022/03/29 12:14:38;;;;;;;;;;;30.00;20.60;;;;;;6281432;22;19957;-91
2022/03/29 12:17:24;;;;;;;;;;;30.00;20.70;;;;;;6280111;22;20316;-92
2022/03/29 12:19:50;;;;;;;;;;;29.90;20.90;;;;;;6262922;22;20353;-91
2022/03/29 12:22:17;;;;;;;;;;;30.10;21.20;;;;;;6290308;22;19915;-92
2022/03/29 12:24:43;;;;;;;;;;;30.10;21.00;;;;;;6284092;22;19915;-92
2022/03/29 12:27:14;;;;;;;;;;;30.10;20.90;;;;;;6285519;22;19973;-90
2022/03/29 12:29:42;;;;;;;;;;;30.00;20.10;;;;;;6289858;22;19911;-91
2022/03/29 12:32:08;;;;;;;;;;;29.80;20.30;;;;;;6293269;22;19914;-90
2022/03/29 12:34:34;;;;;;;;;;;29.30;19.60;;;;;;6281712;22;20327;-91
2022/03/29 12:37:01;;;;;;;;;;;28.80;19.80;;;;;;6296349;22;19911;-91
2022/03/29 12:39:37;;;;;;;;;;;28.50;20.40;;;;;;6281323;22;19981;-91
2022/03/29 12:42:15;;;;;;;;;;;28.60;21.00;;;;;;6270031;22;19924;-90
2022/03/29 12:47:24;;;;;;;;;;;28.30;20.60;;;;;;6269411;22;20435;-91
2022/03/29 12:55:01;;;;;;;;;;;27.70;21.70;;;;;;6315470;22;19919;-91
2022/03/29 12:57:40;;;;;;;;;;;27.60;21.80;;;;;;6312707;22;19911;-91
2022/03/29 13:00:10;;;;;;;;;;;27.50;21.80;;;;;;6285463;22;19952;-92
2022/03/29 13:02:39;;;;;;;;;;;27.20;22.10;;;;;;6311017;22;19934;-91
2022/03/29 13:05:07;;;;;;;;;;;27.20;22.20;;;;;;6310773;22;19928;-92
2022/03/29 13:07:32;;;;;;;;;;;27.20;22.30;;;;;;6313476;22;20287;-93
2022/03/29 13:10:05;;;;;;;;;;;27.10;22.40;;;;;;6312018;22;19907;-92
2022/03/29 13:14:56;;;;;;;;;;;26.80;22.80;;;;;;6311102;22;19911;-90
2022/03/29 13:17:32;;;;;;;;;;;26.80;23.00;;;;;;6311152;22;20361;-89
2022/03/29 13:19:57;;;;;;;;;;;26.80;23.00;;;;;;6284021;22;19911;-91
2022/03/29 13:22:23;;;;;;;;;;;26.70;22.40;;;;;;6310716;22;19906;-91
2022/03/29 13:24:48;;;;;;;;;;;26.30;22.50;;;;;;6311233;22;20216;-91
2022/03/29 13:27:14;;;;;;;;;;;26.00;22.50;;;;;;6310482;22;20185;-89
2022/03/29 13:29:40;;;;;;;;;;;25.70;22.80;;;;;;6311605;22;19918;-91
2022/03/29 13:32:06;;;;;;;;;;;25.40;23.30;;;;;;6309909;22;19938;-91
2022/03/29 13:34:31;;;;;;;;;;;25.00;23.90;;;;;;6311595;22;19907;-91
2022/03/29 13:36:58;;;;;;;;;;;24.50;24.50;;;;;;6309711;22;19992;-90
2022/03/29 13:39:25;;;;;;;;;;;24.10;25.00;;;;;;6310292;22;20507;-90
2022/03/29 13:41:51;;;;;;;;;;;23.80;25.40;;;;;;6308556;22;19964;-90
2022/03/29 13:44:18;;;;;;;;;;;23.40;25.80;;;;;;6309059;22;19974;-90
2022/03/29 13:46:44;;;;;;;;;;;23.00;26.20;;;;;;6308185;22;20005;-90
2022/03/29 13:49:10;;;;;;;;;;;22.60;26.60;;;;;;6309786;22;19907;-92
2022/03/29 13:51:35;;;;;;;;;;;22.30;27.00;;;;;;6310883;22;19990;-90
2022/03/29 13:54:01;;;;;;;;;;;22.20;27.40;;;;;;6312058;22;19910;-90
2022/03/29 13:56:31;;;;;;;;;;;22.00;27.50;;;;;;6310610;22;19915;-90
2022/03/29 13:59:07;;;;;;;;;;;21.70;27.60;;;;;;6286149;22;19986;-91
2022/03/29 14:01:34;;;;;;;;;;;21.50;28.00;;;;;;6312598;22;19914;-90
2022/03/29 14:04:00;;;;;;;;;;;21.30;27.90;;;;;;6312732;22;20235;-90
2022/03/29 14:06:25;;;;;;;;;;;21.20;28.20;;;;;;6313777;22;19909;-91
2022/03/29 14:08:52;;;;;;;;;;;21.20;28.40;;;;;;6312428;22;19942;-90
2022/03/29 14:11:18;;;;;;;;;;;21.20;28.40;;;;;;6310922;22;19941;-90
2022/03/29 14:13:43;;;;;;;;;;;21.00;28.10;;;;;;6311247;22;20311;-90
2022/03/29 14:16:09;;;;;;;;;;;20.80;28.10;;;;;;6309754;22;19910;-90
2022/03/29 14:18:35;;;;;;;;;;;20.50;28.30;;;;;;6311426;22;19911;-90
2022/03/29 14:21:00;;;;;;;;;;;20.30;28.70;;;;;;6310055;22;19915;-90
2022/03/29 14:23:26;;;;;;;;;;;20.10;28.80;;;;;;6307996;22;19996;-90
2022/03/29 14:25:52;;;;;;;;;;;19.90;29.10;;;;;;6282902;22;19907;-90
2022/03/29 14:28:18;;;;;;;;;;;19.80;29.40;;;;;;6284020;22;20372;-89
2022/03/29 14:30:45;;;;;;;;;;;19.70;29.20;;;;;;6308924;22;20709;-91
2022/03/29 14:33:10;;;;;;;;;;;19.60;29.30;;;;;;6309376;22;19956;-88
2022/03/29 14:35:38;;;;;;;;;;;19.50;29.50;;;;;;6283557;22;20243;-91
2022/03/29 14:38:26;;;;;;;;;;;19.40;29.80;;;;;;6283242;22;20017;-90
2022/03/29 14:40:52;;;;;;;;;;;19.30;30.10;;;;;;6310654;22;20282;-88
2022/03/29 14:43:26;;;;;;;;;;;19.30;30.10;;;;;;6308637;22;19907;-90